Time;durP1;ratioP1;P1;durP2;ratioP2;P2;SDS_P1;SDS_P2;PMS_P1;PMS_P2;Temp;Humidity;BMP_temperature;BMP_pressure;BME280_temperature;BME280_humidity;BME280_pressure;Samples;Min_cycle;Max_cycle;Signal;HPM_P1;HPM_P2
2021/07/15 00:00:10;;;;;;;12.63;9.00;;;19.40;95.70;;;;;;5014641;28;20022;-85
2021/07/15 00:02:36;;;;;;;11.05;7.95;;;19.30;95.80;;;;;;5014266;28;20034;-87
2021/07/15 00:05:09;;;;;;;11.10;8.32;;;19.30;95.80;;;;;;5014621;28;20026;-85
2021/07/15 00:07:34;;;;;;;9.23;6.65;;;19.30;95.70;;;;;;5014433;28;20030;-85
2021/07/15 00:10:00;;;;;;;8.25;6.07;;;19.30;95.70;;;;;;5029693;28;20378;-86
2021/07/15 00:12:25;;;;;;;10.63;7.95;;;19.30;95.70;;;;;;5013901;28;20029;-84
2021/07/15 00:14:51;;;;;;;10.77;6.60;;;19.30;95.80;;;;;;5014115;28;20026;-83
2021/07/15 00:17:18;;;;;;;9.00;6.30;;;19.30;95.70;;;;;;5013706;28;20026;-82
2021/07/15 00:19:43;;;;;;;10.57;7.57;;;19.30;95.70;;;;;;5013598;28;20379;-81
2021/07/15 00:22:09;;;;;;;7.78;5.68;;;19.30;95.70;;;;;;5028611;28;20495;-79
2021/07/15 00:24:34;;;;;;;8.68;5.80;;;19.30;95.80;;;;;;5028809;28;20032;-82
2021/07/15 00:27:00;;;;;;;8.50;5.40;;;19.30;95.80;;;;;;5013101;28;20101;-82
2021/07/15 00:29:25;;;;;;;11.00;6.78;;;19.30;95.80;;;;;;5013590;28;20010;-82
2021/07/15 00:31:52;;;;;;;9.80;5.97;;;19.30;95.70;;;;;;5013521;28;20038;-83
2021/07/15 00:34:18;;;;;;;9.10;6.13;;;19.30;95.80;;;;;;5013548;28;20435;-82
2021/07/15 00:36:43;;;;;;;6.82;4.80;;;19.20;95.80;;;;;;5013613;28;20113;-82
2021/07/15 00:39:09;;;;;;;9.48;5.43;;;19.20;95.80;;;;;;5013560;28;20068;-82
2021/07/15 00:41:36;;;;;;;7.47;4.95;;;19.20;95.80;;;;;;5012927;28;20022;-81
2021/07/15 00:44:02;;;;;;;6.30;5.05;;;19.20;95.80;;;;;;5013404;28;20026;-82
2021/07/15 00:46:28;;;;;;;9.38;6.35;;;19.20;95.80;;;;;;5013590;28;20030;-83
2021/07/15 00:48:54;;;;;;;9.43;6.72;;;19.20;95.80;;;;;;5013608;28;20018;-82
2021/07/15 00:51:20;;;;;;;11.93;7.65;;;19.20;95.80;;;;;;5013595;28;20470;-80
2021/07/15 00:53:46;;;;;;;12.57;7.22;;;19.10;95.80;;;;;;5014081;28;20570;-86
2021/07/15 00:56:13;;;;;;;10.35;7.35;;;19.10;95.90;;;;;;5013436;28;20097;-85
2021/07/15 00:58:38;;;;;;;8.15;5.85;;;19.10;95.80;;;;;;5013971;28;20029;-81
2021/07/15 01:01:04;;;;;;;12.82;8.65;;;19.10;95.80;;;;;;5013719;28;20022;-91
2021/07/15 01:03:29;;;;;;;10.60;6.28;;;19.10;95.80;;;;;;5014585;28;20033;-85
2021/07/15 01:05:57;;;;;;;9.45;6.43;;;19.10;95.80;;;;;;5014152;28;20554;-90
2021/07/15 01:08:23;;;;;;;9.40;7.50;;;19.10;95.90;;;;;;5014305;28;20045;-85
2021/07/15 01:10:54;;;;;;;12.82;9.23;;;19.00;95.90;;;;;;5013733;28;20022;-83
2021/07/15 01:13:35;;;;;;;14.40;9.70;;;19.00;95.90;;;;;;5013715;28;20022;-84
2021/07/15 01:16:13;;;;;;;17.25;11.45;;;19.00;95.90;;;;;;5013795;28;20041;-88
2021/07/15 01:19:21;;;;;;;14.18;9.30;;;19.00;96.00;;;;;;5012846;28;20014;-88
2021/07/15 01:22:20;;;;;;;14.13;8.50;;;19.00;95.90;;;;;;5032486;28;20128;-89
2021/07/15 01:25:04;;;;;;;11.20;8.00;;;18.90;96.00;;;;;;5017484;28;20036;-88
2021/07/15 01:27:49;;;;;;;15.60;9.98;;;19.00;96.00;;;;;;5017255;28;20386;-82
2021/07/15 01:30:18;;;;;;;14.10;8.80;;;18.90;96.00;;;;;;5017072;28;20056;-84
2021/07/15 01:33:15;;;;;;;11.82;7.43;;;18.90;96.10;;;;;;5017221;28;20022;-91
2021/07/15 01:35:53;;;;;;;12.38;8.88;;;19.00;96.10;;;;;;5017273;28;20037;-91
2021/07/15 01:38:23;;;;;;;13.35;8.73;;;19.00;96.00;;;;;;5016345;28;20029;-88
2021/07/15 01:40:54;;;;;;;12.55;9.30;;;18.90;96.10;;;;;;5016548;28;20022;-80
2021/07/15 01:43:29;;;;;;;11.80;7.90;;;18.90;96.10;;;;;;5016735;28;20057;-87
2021/07/15 01:45:55;;;;;;;12.13;7.60;;;18.90;96.10;;;;;;5016488;28;20022;-87
2021/07/15 01:48:21;;;;;;;9.75;6.78;;;18.80;96.10;;;;;;5017100;28;20459;-84
2021/07/15 01:50:47;;;;;;;10.55;6.38;;;18.80;96.10;;;;;;5016647;28;20021;-84
2021/07/15 01:53:13;;;;;;;9.82;7.03;;;18.80;96.10;;;;;;5015805;28;20025;-81
2021/07/15 01:55:40;;;;;;;11.70;7.25;;;18.80;96.20;;;;;;5016468;28;20113;-86
2021/07/15 01:58:07;;;;;;;10.90;8.15;;;18.80;96.20;;;;;;5016422;28;20026;-86
2021/07/15 02:00:34;;;;;;;14.10;8.52;;;18.80;96.20;;;;;;5016664;28;20109;-82
2021/07/15 02:03:02;;;;;;;12.63;8.75;;;18.80;96.20;;;;;;5016206;28;20096;-86
2021/07/15 02:05:29;;;;;;;13.30;8.10;;;18.80;96.20;;;;;;5016318;28;20046;-88
2021/07/15 02:07:55;;;;;;;11.15;7.90;;;18.80;96.20;;;;;;5016235;28;20423;-88
2021/07/15 02:10:24;;;;;;;13.73;8.93;;;18.80;96.20;;;;;;5031855;28;20454;-84
2021/07/15 02:12:50;;;;;;;15.20;10.65;;;18.80;96.20;;;;;;5031764;28;20049;-80
2021/07/15 02:15:16;;;;;;;15.02;10.18;;;18.80;96.20;;;;;;5016227;28;20021;-85
2021/07/15 02:17:43;;;;;;;13.60;9.88;;;18.80;96.20;;;;;;5016438;28;20030;-85
2021/07/15 02:20:15;;;;;;;13.30;8.90;;;18.80;96.10;;;;;;5016739;28;20030;-90
2021/07/15 02:22:42;;;;;;;10.48;7.45;;;18.80;96.10;;;;;;5016239;28;20056;-90
2021/07/15 02:25:09;;;;;;;15.60;10.05;;;18.90;96.10;;;;;;5016423;28;20139;-80
2021/07/15 02:27:38;;;;;;;18.70;11.55;;;18.90;96.00;;;;;;5016327;28;20046;-80
2021/07/15 02:30:07;;;;;;;19.27;12.63;;;18.80;96.00;;;;;;5015164;28;20446;-88
2021/07/15 02:32:34;;;;;;;17.90;10.75;;;18.80;96.00;;;;;;5016145;28;20029;-90
2021/07/15 02:35:04;;;;;;;13.00;8.27;;;18.80;96.10;;;;;;5016736;28;20022;-90
2021/07/15 02:37:36;;;;;;;13.70;8.77;;;18.90;96.10;;;;;;5016125;28;20032;-85
2021/07/15 02:40:07;;;;;;;11.77;7.60;;;18.90;96.00;;;;;;5016381;28;20033;-90
2021/07/15 02:42:33;;;;;;;11.98;7.53;;;18.90;96.00;;;;;;5016262;28;20034;-88
2021/07/15 02:44:59;;;;;;;13.30;9.00;;;18.90;95.90;;;;;;5016707;28;20033;-88
2021/07/15 02:47:24;;;;;;;11.90;7.43;;;18.90;95.90;;;;;;5016067;28;20018;-86
2021/07/15 02:49:50;;;;;;;10.50;6.63;;;18.90;96.00;;;;;;5016147;28;20026;-89
2021/07/15 02:52:16;;;;;;;13.90;7.20;;;18.90;95.90;;;;;;5030496;28;20088;-87
2021/07/15 02:54:42;;;;;;;11.45;7.43;;;18.90;95.90;;;;;;5015892;28;20022;-86
2021/07/15 02:57:27;;;;;;;13.07;7.72;;;18.90;95.90;;;;;;5015586;28;20081;-91
2021/07/15 03:00:13;;;;;;;12.88;9.15;;;18.90;95.90;;;;;;5015707;28;20022;-88
2021/07/15 03:02:56;;;;;;;10.13;6.30;;;18.80;95.80;;;;;;5015634;28;20048;-85
2021/07/15 03:05:27;;;;;;;10.60;6.90;;;18.80;95.90;;;;;;5015212;28;20505;-88
2021/07/15 03:08:02;;;;;;;6.82;4.72;;;18.80;95.90;;;;;;5015718;28;20022;-89
2021/07/15 03:10:29;;;;;;;9.02;6.10;;;18.90;96.10;;;;;;5015175;28;20594;-87
2021/07/15 03:12:56;;;;;;;12.82;7.68;;;18.90;95.80;;;;;;5015306;28;20064;-89
2021/07/15 03:15:22;;;;;;;10.23;6.90;;;18.80;95.80;;;;;;5015611;28;20136;-87
2021/07/15 03:17:50;;;;;;;9.00;5.82;;;18.80;95.80;;;;;;5031231;28;20050;-91
2021/07/15 03:20:22;;;;;;;8.90;4.57;;;18.80;95.80;;;;;;5015294;28;20029;-91
2021/07/15 03:23:00;;;;;;;8.40;5.18;;;18.90;95.80;;;;;;5030328;28;20610;-85
2021/07/15 03:25:27;;;;;;;6.55;4.70;;;18.90;95.70;;;;;;5030775;28;20065;-82
2021/07/15 03:27:56;;;;;;;7.10;4.40;;;18.80;95.70;;;;;;5030617;28;20053;-80
2021/07/15 03:30:24;;;;;;;9.20;5.38;;;18.80;95.70;;;;;;5015205;28;20112;-87
2021/07/15 03:32:52;;;;;;;8.13;5.13;;;18.80;95.70;;;;;;5015232;28;20133;-87
2021/07/15 03:35:18;;;;;;;6.43;4.15;;;18.80;95.70;;;;;;5014757;28;20029;-88
2021/07/15 03:37:47;;;;;;;5.63;3.35;;;18.80;95.70;;;;;;5015153;28;20033;-87
2021/07/15 03:40:15;;;;;;;5.57;3.60;;;18.80;95.60;;;;;;5015096;28;20475;-90
2021/07/15 03:42:41;;;;;;;5.68;3.20;;;18.80;95.60;;;;;;5014316;28;20372;-84
2021/07/15 03:45:13;;;;;;;5.70;3.60;;;18.90;95.60;;;;;;5016232;28;20052;-85
2021/07/15 03:47:39;;;;;;;6.18;3.72;;;18.80;95.50;;;;;;5015108;28;20502;-91
2021/07/15 03:50:07;;;;;;;7.75;4.30;;;18.80;95.60;;;;;;5014655;28;20087;-86
2021/07/15 03:52:34;;;;;;;6.10;3.58;;;18.80;95.60;;;;;;5014633;28;20475;-85
2021/07/15 03:55:00;;;;;;;6.95;4.53;;;18.90;95.60;;;;;;5013683;28;20069;-87
2021/07/15 03:57:28;;;;;;;6.70;4.03;;;18.80;95.50;;;;;;5013050;28;20164;-84
2021/07/15 03:59:55;;;;;;;6.05;3.42;;;18.80;95.60;;;;;;5030408;28;20029;-88
2021/07/15 04:02:25;;;;;;;5.47;3.50;;;18.80;95.60;;;;;;5029666;28;20034;-82
2021/07/15 04:04:56;;;;;;;5.78;4.28;;;18.80;95.60;;;;;;5029517;28;20026;-85
2021/07/15 04:07:26;;;;;;;6.38;3.92;;;18.80;95.50;;;;;;5014910;28;20026;-86
2021/07/15 04:09:52;;;;;;;7.78;4.45;;;18.80;95.60;;;;;;5014356;28;20442;-90
2021/07/15 04:12:21;;;;;;;6.07;4.07;;;18.70;95.60;;;;;;5014602;28;20375;-83
2021/07/15 04:15:04;;;;;;;6.30;3.25;;;18.70;95.70;;;;;;5015656;28;20471;-90
2021/07/15 04:17:33;;;;;;;5.82;3.28;;;18.80;95.60;;;;;;5014619;28;20069;-87
2021/07/15 04:20:00;;;;;;;4.90;2.92;;;18.80;95.70;;;;;;5014265;28;20029;-84
2021/07/15 04:22:28;;;;;;;4.38;3.00;;;18.70;95.60;;;;;;5013908;28;20515;-85
2021/07/15 04:24:55;;;;;;;5.30;3.10;;;18.80;95.60;;;;;;5014079;28;20025;-85
2021/07/15 04:27:23;;;;;;;5.63;3.40;;;18.80;95.60;;;;;;5014319;28;20083;-89
2021/07/15 04:29:50;;;;;;;5.85;3.65;;;18.70;95.60;;;;;;5029867;28;20018;-83
2021/07/15 04:32:19;;;;;;;5.75;3.20;;;18.70;95.70;;;;;;5029818;28;20053;-88
2021/07/15 04:34:45;;;;;;;5.95;3.15;;;18.70;96.00;;;;;;5014886;28;20017;-91
2021/07/15 04:37:12;;;;;;;4.10;2.80;;;18.60;95.80;;;;;;5013983;28;20097;-84
2021/07/15 04:39:38;;;;;;;6.45;3.30;;;18.70;95.80;;;;;;5014270;28;20022;-90
2021/07/15 04:42:05;;;;;;;7.72;4.07;;;18.70;95.80;;;;;;5014280;28;20061;-91
2021/07/15 04:44:35;;;;;;;6.15;3.90;;;18.60;95.70;;;;;;5014734;28;20473;-88
2021/07/15 04:47:03;;;;;;;6.07;3.95;;;18.70;95.80;;;;;;5029516;28;20426;-87
2021/07/15 04:49:32;;;;;;;6.70;3.47;;;18.60;95.80;;;;;;5014431;28;20018;-91
2021/07/15 04:51:58;;;;;;;5.80;3.20;;;18.70;95.80;;;;;;5014091;28;20026;-91
2021/07/15 04:54:24;;;;;;;5.50;3.88;;;18.70;95.80;;;;;;5015582;28;20331;-93
2021/07/15 04:56:51;;;;;;;6.00;4.22;;;18.70;95.80;;;;;;5033326;28;20109;-89
2021/07/15 04:59:17;;;;;;;6.22;4.00;;;18.70;95.80;;;;;;5018270;28;20018;-89
2021/07/15 05:01:43;;;;;;;6.10;3.63;;;18.70;95.80;;;;;;5017421;28;20021;-84
2021/07/15 05:04:08;;;;;;;8.48;6.03;;;18.70;95.80;;;;;;5017789;28;20113;-75
2021/07/15 05:06:34;;;;;;;8.07;5.43;;;18.70;95.80;;;;;;5017988;28;20050;-90
2021/07/15 05:08:59;;;;;;;6.93;4.13;;;18.70;95.80;;;;;;5017728;28;20026;-87
2021/07/15 05:11:25;;;;;;;9.52;4.95;;;18.70;95.70;;;;;;5032767;28;20503;-83
2021/07/15 05:13:50;;;;;;;8.82;5.28;;;18.70;95.80;;;;;;5017462;28;20026;-88
2021/07/15 05:16:17;;;;;;;7.47;4.07;;;18.70;95.80;;;;;;5017353;28;20080;-88
2021/07/15 05:18:43;;;;;;;11.98;6.82;;;18.70;95.80;;;;;;5017462;28;20109;-86
2021/07/15 05:21:09;;;;;;;10.93;6.57;;;18.70;95.70;;;;;;5032906;28;20049;-86
2021/07/15 05:23:34;;;;;;;8.55;5.13;;;18.70;95.80;;;;;;5017137;28;20080;-90
2021/07/15 05:26:00;;;;;;;9.23;5.50;;;18.70;95.80;;;;;;5016967;28;20049;-84
2021/07/15 05:28:26;;;;;;;11.02;7.32;;;18.70;95.70;;;;;;5032507;28;20463;-85
2021/07/15 05:30:52;;;;;;;9.82;5.72;;;18.60;95.80;;;;;;5016580;28;20375;-87
2021/07/15 05:33:18;;;;;;;9.32;5.30;;;18.70;95.90;;;;;;5017031;28;20030;-83
2021/07/15 05:35:44;;;;;;;10.57;6.80;;;18.60;95.90;;;;;;5017089;28;20041;-84
2021/07/15 05:38:10;;;;;;;8.80;4.43;;;18.60;95.80;;;;;;5017038;28;20018;-84
2021/07/15 05:40:36;;;;;;;8.80;4.90;;;18.60;95.90;;;;;;5032030;28;20390;-85
2021/07/15 05:43:02;;;;;;;8.45;5.15;;;18.60;95.90;;;;;;5016940;28;20073;-82
2021/07/15 05:45:28;;;;;;;8.52;5.50;;;18.60;95.90;;;;;;5016605;28;20022;-86
2021/07/15 05:47:53;;;;;;;8.15;4.97;;;18.60;95.90;;;;;;5016401;28;20022;-85
2021/07/15 05:50:19;;;;;;;8.18;5.00;;;18.60;95.90;;;;;;5016323;28;20025;-84
2021/07/15 05:52:45;;;;;;;6.97;4.47;;;18.60;95.90;;;;;;5016478;28;20034;-85
2021/07/15 05:55:11;;;;;;;6.95;4.10;;;18.60;95.90;;;;;;5016579;28;20018;-82
2021/07/15 05:57:38;;;;;;;10.35;5.53;;;18.60;95.80;;;;;;5016210;28;20026;-86
2021/07/15 06:00:10;;;;;;;12.00;6.10;;;18.70;95.90;;;;;;5016017;28;20021;-89
2021/07/15 06:02:36;;;;;;;10.18;5.18;;;18.60;95.80;;;;;;5016708;28;20034;-86
2021/07/15 06:05:02;;;;;;;10.07;5.78;;;18.70;95.90;;;;;;5016559;28;20022;-87
2021/07/15 06:07:27;;;;;;;8.13;4.65;;;18.60;95.80;;;;;;5016285;28;20080;-90
2021/07/15 06:09:53;;;;;;;9.23;5.55;;;18.60;95.90;;;;;;5016417;28;20029;-83
2021/07/15 06:12:19;;;;;;;14.02;7.53;;;18.70;95.90;;;;;;5016587;28;20049;-85
2021/07/15 06:14:44;;;;;;;16.23;9.25;;;18.70;95.80;;;;;;5016146;28;20459;-88
2021/07/15 06:17:10;;;;;;;17.15;8.23;;;18.60;95.80;;;;;;5016676;28;20084;-87
2021/07/15 06:19:35;;;;;;;8.90;5.43;;;18.60;95.90;;;;;;5016463;28;20022;-90
2021/07/15 06:22:01;;;;;;;7.50;4.70;;;18.60;95.90;;;;;;5016260;28;20053;-86
2021/07/15 06:24:26;;;;;;;13.23;8.07;;;18.60;95.90;;;;;;5016279;28;20104;-78
2021/07/15 06:26:52;;;;;;;14.43;8.02;;;18.70;95.80;;;;;;5016401;28;20018;-90
2021/07/15 06:29:18;;;;;;;12.45;6.93;;;18.60;95.80;;;;;;5015920;28;20426;-88
2021/07/15 06:31:43;;;;;;;11.30;7.05;;;18.60;95.90;;;;;;5016289;28;20068;-87
2021/07/15 06:34:10;;;;;;;11.10;6.72;;;18.60;95.90;;;;;;5016552;28;20129;-86
2021/07/15 06:36:42;;;;;;;9.75;6.45;;;18.60;95.90;;;;;;5016597;28;20018;-87
2021/07/15 06:39:07;;;;;;;10.10;5.20;;;18.70;95.90;;;;;;5016801;28;20108;-87
2021/07/15 06:41:33;;;;;;;8.65;5.28;;;18.70;95.90;;;;;;5016030;28;20537;-85
2021/07/15 06:43:58;;;;;;;8.38;5.18;;;18.70;95.80;;;;;;5015511;28;20378;-86
2021/07/15 06:46:26;;;;;;;6.60;4.80;;;18.60;95.80;;;;;;5015847;28;20489;-86
2021/07/15 06:48:51;;;;;;;7.47;4.50;;;18.70;95.90;;;;;;5015834;28;20029;-86
2021/07/15 06:51:17;;;;;;;6.85;4.13;;;18.60;95.90;;;;;;5031214;28;20033;-84
2021/07/15 06:53:43;;;;;;;5.22;3.50;;;18.70;95.90;;;;;;5016070;28;20032;-86
2021/07/15 06:56:08;;;;;;;6.28;3.60;;;18.70;95.90;;;;;;5016139;28;20022;-85
2021/07/15 06:58:34;;;;;;;4.82;3.03;;;18.80;95.80;;;;;;5015761;28;20501;-85
2021/07/15 07:00:59;;;;;;;4.15;2.85;;;18.70;95.80;;;;;;5016015;28;20033;-87
2021/07/15 07:03:25;;;;;;;5.03;3.10;;;18.80;95.70;;;;;;5015536;28;20045;-92
2021/07/15 07:05:51;;;;;;;5.07;3.03;;;18.80;95.80;;;;;;5030971;28;20054;-88
2021/07/15 07:08:17;;;;;;;3.65;2.65;;;18.70;95.80;;;;;;5015707;28;20040;-87
2021/07/15 07:10:43;;;;;;;3.95;2.20;;;18.80;95.70;;;;;;5015338;28;20025;-80
2021/07/15 07:13:08;;;;;;;3.50;2.30;;;18.80;95.70;;;;;;5014378;28;20033;-85
2021/07/15 07:15:34;;;;;;;3.55;1.90;;;18.80;95.70;;;;;;5014728;28;20470;-84
2021/07/15 07:17:59;;;;;;;5.68;3.13;;;18.80;95.70;;;;;;5014858;28;20483;-82
2021/07/15 07:20:25;;;;;;;6.15;3.50;;;18.80;95.60;;;;;;5014536;28;20033;-80
2021/07/15 07:22:50;;;;;;;5.22;2.88;;;18.70;95.90;;;;;;5029655;28;20406;-84
2021/07/15 07:25:18;;;;;;;4.20;3.17;;;18.80;95.70;;;;;;5015146;28;20018;-83
2021/07/15 07:27:44;;;;;;;4.95;2.95;;;18.70;95.60;;;;;;5014141;28;20049;-85
2021/07/15 07:30:12;;;;;;;4.78;2.88;;;18.80;95.70;;;;;;5014738;28;20026;-82
2021/07/15 07:32:37;;;;;;;6.97;3.92;;;18.80;95.60;;;;;;5014804;28;20034;-79
2021/07/15 07:35:04;;;;;;;10.07;7.03;;;18.80;95.60;;;;;;5013303;28;20375;-82
2021/07/15 07:37:30;;;;;;;8.30;5.43;;;18.70;95.60;;;;;;5014527;28;20491;-85
2021/07/15 07:39:56;;;;;;;8.02;5.28;;;18.70;95.70;;;;;;5014841;28;20057;-86
2021/07/15 07:42:21;;;;;;;7.18;4.72;;;18.60;95.70;;;;;;5014306;28;20041;-92
2021/07/15 07:44:47;;;;;;;7.32;4.75;;;18.70;95.70;;;;;;5014707;28;20032;-79
2021/07/15 07:47:13;;;;;;;11.55;8.10;;;18.70;95.70;;;;;;5014719;28;20029;-80
2021/07/15 07:49:38;;;;;;;10.30;6.32;;;18.60;95.60;;;;;;5014217;28;20029;-83
2021/07/15 07:52:07;;;;;;;9.45;5.13;;;18.60;95.70;;;;;;5014368;28;20021;-87
2021/07/15 07:54:33;;;;;;;10.02;6.60;;;18.70;95.70;;;;;;5014429;28;20033;-85
2021/07/15 07:56:59;;;;;;;7.50;4.43;;;18.70;95.60;;;;;;5014189;28;20026;-86
2021/07/15 07:59:24;;;;;;;10.13;6.60;;;18.70;95.60;;;;;;5014252;28;20025;-83
2021/07/15 08:01:50;;;;;;;8.25;5.85;;;18.70;95.60;;;;;;5014496;28;20033;-87
2021/07/15 08:04:15;;;;;;;9.00;5.03;;;18.70;95.60;;;;;;5014506;28;20459;-91
2021/07/15 08:06:42;;;;;;;6.50;4.55;;;18.70;95.70;;;;;;5014152;28;20026;-85
2021/07/15 08:09:15;;;;;;;6.07;3.75;;;18.70;95.60;;;;;;5014219;28;20529;-86
2021/07/15 08:11:46;;;;;;;6.13;3.55;;;18.80;95.60;;;;;;5013821;28;20028;-82
2021/07/15 08:14:12;;;;;;;5.03;3.15;;;18.90;95.50;;;;;;5029401;28;20022;-83
2021/07/15 08:16:37;;;;;;;6.60;3.55;;;18.80;95.50;;;;;;5029254;28;20080;-84
2021/07/15 08:19:02;;;;;;;6.10;3.72;;;18.80;95.50;;;;;;5014178;28;20025;-87
2021/07/15 08:21:30;;;;;;;7.65;3.88;;;18.80;95.50;;;;;;5013890;28;20021;-83
2021/07/15 08:23:55;;;;;;;6.63;3.75;;;18.70;95.50;;;;;;5014062;28;20025;-86
2021/07/15 08:26:21;;;;;;;4.75;2.90;;;18.70;95.60;;;;;;5013989;28;20026;-91
2021/07/15 08:28:47;;;;;;;4.32;2.60;;;18.70;95.50;;;;;;5014360;28;20060;-82
2021/07/15 08:31:12;;;;;;;4.80;3.15;;;18.80;95.60;;;;;;5030117;28;20072;-91
2021/07/15 08:33:38;;;;;;;6.38;2.90;;;18.80;95.50;;;;;;5014915;28;20018;-82
2021/07/15 08:36:04;;;;;;;4.53;2.60;;;18.80;95.50;;;;;;5014309;28;20463;-89
2021/07/15 08:38:30;;;;;;;7.13;3.83;;;18.80;95.40;;;;;;5014173;28;20069;-91
2021/07/15 08:40:55;;;;;;;6.22;3.60;;;18.80;95.40;;;;;;5014360;28;20533;-93
2021/07/15 08:43:22;;;;;;;6.65;4.05;;;18.80;95.40;;;;;;5014084;28;20435;-80
2021/07/15 08:45:50;;;;;;;10.23;5.07;;;18.80;95.40;;;;;;5013833;28;20030;-93
2021/07/15 08:48:17;;;;;;;9.88;5.68;;;18.70;95.40;;;;;;5014111;28;20026;-88
2021/07/15 08:50:43;;;;;;;11.82;7.95;;;18.60;95.50;;;;;;5014128;28;20024;-90
2021/07/15 08:53:10;;;;;;;11.07;6.50;;;18.50;95.60;;;;;;5014936;28;20018;-88
2021/07/15 08:58:20;;;;;;;9.50;6.18;;;18.50;95.70;;;;;;5015232;28;20096;-83
2021/07/15 09:00:48;;;;;;;13.63;7.95;;;18.50;95.70;;;;;;5013836;28;20533;-80
2021/07/15 09:03:14;;;;;;;10.82;6.32;;;18.40;95.60;;;;;;5014013;28;20034;-86
2021/07/15 09:05:41;;;;;;;10.27;6.10;;;18.40;95.70;;;;;;5013888;28;20071;-88
2021/07/15 09:08:07;;;;;;;10.75;6.47;;;18.40;95.70;;;;;;5013087;28;20078;-87
2021/07/15 09:10:32;;;;;;;7.05;4.43;;;18.40;95.60;;;;;;5013633;28;20483;-84
2021/07/15 09:13:03;;;;;;;9.32;6.05;;;18.50;95.70;;;;;;5013351;28;20109;-83
2021/07/15 09:15:28;;;;;;;8.85;4.15;;;18.40;95.60;;;;;;5014388;28;20105;-88
2021/07/15 09:17:54;;;;;;;7.93;5.05;;;18.40;95.70;;;;;;5013811;28;20065;-93
2021/07/15 09:20:25;;;;;;;9.23;5.45;;;18.50;95.70;;;;;;5013452;28;20026;-84
2021/07/15 09:23:03;;;;;;;8.65;5.57;;;18.50;95.60;;;;;;5012878;28;20057;-87
2021/07/15 09:25:48;;;;;;;9.18;5.35;;;18.40;95.60;;;;;;5013654;28;20597;-83
2021/07/15 09:28:17;;;;;;;6.68;4.20;;;18.50;95.60;;;;;;5006252;28;20041;-90
2021/07/15 09:30:44;;;;;;;7.55;4.90;;;18.50;95.70;;;;;;5013664;28;20022;-86
2021/07/15 09:33:11;;;;;;;6.28;3.60;;;18.50;95.60;;;;;;5013404;28;20568;-84
2021/07/15 09:35:38;;;;;;;7.13;4.63;;;18.60;95.60;;;;;;5013711;28;20034;-80
2021/07/15 09:38:24;;;;;;;7.68;4.78;;;18.60;95.60;;;;;;5012475;28;20352;-84
2021/07/15 09:40:57;;;;;;;9.00;5.25;;;18.60;95.40;;;;;;5013591;28;20033;-83
2021/07/15 09:43:23;;;;;;;8.77;5.28;;;18.60;95.50;;;;;;5020166;28;20476;-84
2021/07/15 09:45:53;;;;;;;5.97;3.85;;;18.50;95.60;;;;;;5018101;28;20061;-79
2021/07/15 09:48:24;;;;;;;6.15;3.47;;;18.60;95.50;;;;;;5016605;28;20018;-86
2021/07/15 09:50:51;;;;;;;6.20;3.85;;;18.60;95.50;;;;;;5015938;28;20030;-78
2021/07/15 09:53:25;;;;;;;4.82;3.33;;;18.70;95.40;;;;;;5015515;28;20030;-79
2021/07/15 09:56:01;;;;;;;5.10;3.30;;;18.70;95.40;;;;;;5016261;28;20022;-81
2021/07/15 09:58:40;;;;;;;7.28;3.95;;;18.70;95.30;;;;;;5016321;28;20065;-79
2021/07/15 10:01:25;;;;;;;7.82;4.13;;;18.70;95.30;;;;;;5016039;28;20044;-77
2021/07/15 10:03:52;;;;;;;4.85;2.95;;;18.70;95.30;;;;;;5011355;28;20513;-80
2021/07/15 10:06:19;;;;;;;4.80;2.88;;;18.70;95.40;;;;;;5012870;28;20037;-82
2021/07/15 10:08:50;;;;;;;4.47;3.33;;;18.80;95.30;;;;;;5013144;28;20486;-78
2021/07/15 10:11:24;;;;;;;6.28;3.95;;;18.80;95.30;;;;;;5013179;28;20052;-83
2021/07/15 10:14:04;;;;;;;5.80;3.80;;;18.80;95.20;;;;;;5013507;28;20097;-86
2021/07/15 10:16:42;;;;;;;5.80;3.45;;;18.90;95.20;;;;;;5013169;28;20530;-83
2021/07/15 10:19:16;;;;;;;5.38;3.10;;;18.90;95.20;;;;;;5013439;28;20034;-84
2021/07/15 10:21:41;;;;;;;4.82;2.80;;;19.00;95.10;;;;;;5012450;28;20133;-80
2021/07/15 10:24:16;;;;;;;5.60;3.58;;;19.00;95.00;;;;;;5012966;28;20141;-80
2021/07/15 10:26:46;;;;;;;5.55;3.55;;;19.10;94.90;;;;;;5012736;28;20026;-79
2021/07/15 10:29:14;;;;;;;5.47;3.90;;;19.00;95.00;;;;;;5012869;28;20040;-80
2021/07/15 10:31:40;;;;;;;5.10;3.30;;;18.90;95.00;;;;;;5003138;28;20022;-81
2021/07/15 10:34:12;;;;;;;8.35;5.45;;;18.90;95.00;;;;;;5004836;28;20420;-82
2021/07/15 10:36:39;;;;;;;6.78;4.30;;;18.90;95.00;;;;;;5013640;28;20105;-79
2021/07/15 10:39:10;;;;;;;7.65;4.97;;;18.80;95.40;;;;;;5015144;28;20054;-80
2021/07/15 10:41:41;;;;;;;6.07;3.80;;;18.80;95.10;;;;;;5014978;28;20475;-77
2021/07/15 10:44:07;;;;;;;5.22;3.25;;;18.80;95.20;;;;;;5015382;28;20026;-84
2021/07/15 10:46:33;;;;;;;6.13;3.55;;;18.80;95.20;;;;;;5015384;28;20031;-86
2021/07/15 10:48:58;;;;;;;5.00;3.38;;;18.80;95.20;;;;;;5015490;28;20033;-79
2021/07/15 10:51:24;;;;;;;5.43;3.55;;;18.80;95.10;;;;;;5014510;28;20493;-78
2021/07/15 10:53:51;;;;;;;4.88;2.92;;;18.90;95.10;;;;;;5013780;28;20021;-81
2021/07/15 10:56:19;;;;;;;6.30;3.40;;;18.90;95.10;;;;;;5014953;28;20053;-86
2021/07/15 10:58:53;;;;;;;5.47;3.60;;;18.90;95.10;;;;;;5015279;28;20025;-82
2021/07/15 11:01:35;;;;;;;5.07;3.28;;;19.00;95.10;;;;;;5014109;28;20046;-80
2021/07/15 11:04:05;;;;;;;5.40;3.15;;;19.10;94.90;;;;;;5027731;28;20041;-84
2021/07/15 11:06:45;;;;;;;4.20;2.75;;;19.00;94.90;;;;;;5035087;28;20025;-84
2021/07/15 11:09:32;;;;;;;4.82;2.75;;;19.00;95.00;;;;;;5035215;28;20025;-86
2021/07/15 11:12:00;;;;;;;3.92;2.60;;;19.00;95.30;;;;;;5018169;28;20033;-83
2021/07/15 11:14:59;;;;;;;4.47;2.63;;;19.00;95.00;;;;;;5015627;28;20026;-86
2021/07/15 11:17:30;;;;;;;5.00;2.95;;;19.00;94.90;;;;;;5009845;28;20033;-82
2021/07/15 11:20:14;;;;;;;4.90;2.88;;;18.90;95.00;;;;;;5021553;28;20030;-91
2021/07/15 11:22:45;;;;;;;4.30;2.80;;;18.90;95.20;;;;;;5035159;28;20053;-84
2021/07/15 11:25:41;;;;;;;5.05;3.45;;;18.80;95.20;;;;;;5035051;28;20103;-88
2021/07/15 11:28:10;;;;;;;4.68;3.20;;;18.90;95.10;;;;;;5009618;28;20041;-83
2021/07/15 11:30:38;;;;;;;4.70;3.42;;;18.80;95.20;;;;;;5015054;28;20096;-82
2021/07/15 11:33:19;;;;;;;5.38;3.38;;;18.80;95.30;;;;;;5015091;28;20104;-84
2021/07/15 11:36:03;;;;;;;5.30;3.28;;;18.90;95.10;;;;;;5014873;28;20081;-83
2021/07/15 11:38:39;;;;;;;7.30;4.18;;;18.90;95.10;;;;;;5014748;28;20075;-84
2021/07/15 11:41:09;;;;;;;8.30;5.28;;;18.90;95.00;;;;;;5013955;28;20088;-83
2021/07/15 11:43:47;;;;;;;5.65;4.22;;;18.90;95.10;;;;;;5020607;28;20029;-89
2021/07/15 11:46:15;;;;;;;8.10;4.35;;;18.90;95.00;;;;;;5034487;28;20496;-82
2021/07/15 11:49:06;;;;;;;6.53;4.00;;;18.90;95.00;;;;;;5049945;28;20029;-86
2021/07/15 11:51:38;;;;;;;4.30;3.08;;;18.90;95.00;;;;;;5034735;28;20022;-89
2021/07/15 11:54:23;;;;;;;5.05;3.20;;;18.90;95.10;;;;;;5034973;28;20025;-90
2021/07/15 11:57:23;;;;;;;4.60;2.97;;;19.00;95.10;;;;;;5034704;28;20033;-86
2021/07/15 12:00:11;;;;;;;4.70;3.30;;;19.00;95.00;;;;;;4967171;28;20525;-90
2021/07/15 12:02:43;;;;;;;4.40;3.07;;;19.20;95.10;;;;;;4993906;28;20042;-89
2021/07/15 12:05:18;;;;;;;5.50;3.60;;;19.30;95.00;;;;;;4999210;28;20041;-89
2021/07/15 12:07:48;;;;;;;5.35;4.10;;;19.30;94.80;;;;;;5014343;28;20026;-86
2021/07/15 12:10:19;;;;;;;8.13;4.55;;;19.30;94.80;;;;;;5014233;28;20483;-84
2021/07/15 12:12:45;;;;;;;8.68;5.32;;;19.20;94.80;;;;;;5015408;28;20106;-92
2021/07/15 12:15:16;;;;;;;8.15;4.53;;;19.10;94.90;;;;;;5017906;28;20109;-92
2021/07/15 12:17:42;;;;;;;7.35;4.15;;;19.10;94.90;;;;;;5014583;28;20103;-86
2021/07/15 12:20:09;;;;;;;4.68;3.33;;;19.20;94.90;;;;;;5012964;28;20097;-88
2021/07/15 12:22:43;;;;;;;5.28;3.38;;;19.20;94.90;;;;;;5014467;28;20085;-88
2021/07/15 12:25:12;;;;;;;4.85;3.55;;;19.40;94.80;;;;;;5015063;28;20060;-91
2021/07/15 12:27:46;;;;;;;6.07;4.13;;;19.50;94.70;;;;;;5014711;28;20025;-93
2021/07/15 12:30:12;;;;;;;6.72;4.32;;;19.40;94.60;;;;;;5016383;28;20037;-88
2021/07/15 12:32:39;;;;;;;4.68;3.40;;;19.40;94.70;;;;;;5012931;28;20541;-85
2021/07/15 12:35:15;;;;;;;7.53;5.13;;;19.40;94.70;;;;;;5014046;28;20026;-83
2021/07/15 12:37:40;;;;;;;6.07;4.07;;;19.40;94.60;;;;;;5024629;28;20445;-89
2021/07/15 12:40:08;;;;;;;7.32;4.40;;;19.30;94.70;;;;;;5034067;28;20029;-89
2021/07/15 12:42:36;;;;;;;6.43;4.53;;;19.30;94.80;;;;;;5033287;28;20037;-85
2021/07/15 12:45:19;;;;;;;5.80;4.00;;;19.30;94.70;;;;;;5031441;28;20112;-83
2021/07/15 12:48:01;;;;;;;5.18;3.58;;;19.30;94.70;;;;;;5033320;28;20120;-84
2021/07/15 12:50:28;;;;;;;5.40;3.85;;;19.40;94.70;;;;;;5033456;28;20025;-82
2021/07/15 12:53:14;;;;;;;7.45;5.50;;;19.40;94.70;;;;;;5031672;28;20494;-81
2021/07/15 12:55:43;;;;;;;12.05;6.88;;;19.50;94.50;;;;;;5013182;28;20159;-82